Terminal Aerodrome Forecast
Issued by NWS Melbourne, FL

Home | Current Version | Previous Version | Text Only | Print | Product List | Glossary On
Versions: 1 2 3 4 5 6 7 8 9 10 11 12 13 14 15 16 17 18 19 20 21 22 23 24 25 26 27 28
816
FTUS42 KMLB 302107 AAA
TAFMCO
TAF AMD
KMCO 302107Z 3021/0118 12017G25KT P6SM VCSH SCT040 BKN250
     FM010100 14009KT P6SM FEW060 SCT250
     FM011400 16012KT P6SM SCT025 SCT150 BKN250=

USA.gov is the U.S. government's official web portal to all federal, state and local government web resources and services.